Time;durP1;ratioP1;P1;durP2;ratioP2;P2;SDS_P1;SDS_P2;PMS_P1;PMS_P2;Temp;Humidity;BMP_temperature;BMP_pressure;BME280_temperature;BME280_humidity;BME280_pressure;Samples;Min_cycle;Max_cycle;Signal;HPM_P1;HPM_P2
2021/04/14 00:00:55;;;;;;;3.10;0.98;;;-0.10;99.90;;;;;;5072948;28;20201;-49
2021/04/14 00:03:25;;;;;;;9.10;0.85;;;-0.10;99.90;;;;;;5070462;28;20178;-48
2021/04/14 00:05:52;;;;;;;3.03;1.08;;;-0.10;99.90;;;;;;5073569;28;20180;-49
2021/04/14 00:08:18;;;;;;;3.28;0.95;;;-0.10;99.90;;;;;;5072578;28;20178;-49
2021/04/14 00:10:44;;;;;;;3.95;0.80;;;-0.10;99.90;;;;;;5071004;28;20878;-48
2021/04/14 00:13:17;;;;;;;5.53;1.60;;;-0.10;99.90;;;;;;5072562;28;20174;-47
2021/04/14 00:15:47;;;;;;;5.38;1.20;;;-0.20;99.90;;;;;;5073273;28;20546;-48
2021/04/14 00:18:14;;;;;;;5.05;1.48;;;-0.30;99.90;;;;;;5072057;28;20174;-49
2021/04/14 00:20:40;;;;;;;2.85;1.20;;;-0.30;99.90;;;;;;5065846;28;20171;-48
2021/04/14 00:23:07;;;;;;;4.60;1.42;;;-0.30;99.90;;;;;;5068871;28;20173;-48
2021/04/14 00:25:35;;;;;;;5.28;1.35;;;-0.40;99.90;;;;;;5064968;28;20227;-48
2021/04/14 00:28:01;;;;;;;5.10;1.80;;;-0.40;99.90;;;;;;5072071;28;20630;-50
2021/04/14 00:30:27;;;;;;;5.32;1.48;;;-0.40;99.90;;;;;;5072032;28;20181;-47
2021/04/14 00:32:55;;;;;;;5.82;1.50;;;-0.50;99.90;;;;;;5071277;28;20605;-48
2021/04/14 00:35:22;;;;;;;5.20;1.58;;;-0.50;99.90;;;;;;5072886;28;20209;-48
2021/04/14 00:37:48;;;;;;;6.00;1.35;;;-0.40;99.90;;;;;;5071422;28;20205;-48
2021/04/14 00:40:19;;;;;;;5.40;1.02;;;-0.40;99.90;;;;;;5068480;28;20178;-49
2021/04/14 00:42:45;;;;;;;6.72;1.30;;;-0.50;99.90;;;;;;5085667;28;20217;-49
2021/04/14 00:45:12;;;;;;;9.13;1.10;;;-0.50;99.90;;;;;;5070987;28;20190;-48
2021/04/14 00:47:38;;;;;;;4.50;1.20;;;-0.50;99.90;;;;;;5066701;28;20186;-48
2021/04/14 00:50:12;;;;;;;8.55;1.05;;;-0.50;99.90;;;;;;5070846;28;20197;-48
2021/04/14 00:52:38;;;;;;;2.90;1.38;;;-0.50;99.90;;;;;;5070505;28;20166;-48
2021/04/14 00:55:05;;;;;;;4.68;1.13;;;-0.60;99.90;;;;;;5069650;28;20297;-48
2021/04/14 00:57:32;;;;;;;5.30;1.05;;;-0.70;99.90;;;;;;5072296;28;20186;-47
2021/04/14 00:59:58;;;;;;;10.15;1.63;;;-0.70;99.90;;;;;;5072597;28;20178;-48
2021/04/14 01:02:24;;;;;;;4.97;1.52;;;-0.60;99.90;;;;;;5073223;28;20205;-48
2021/04/14 01:04:50;;;;;;;3.85;1.33;;;-0.70;99.90;;;;;;5074109;28;20178;-49
2021/04/14 01:07:16;;;;;;;8.45;1.15;;;-0.70;99.90;;;;;;5074495;28;20181;-47
2021/04/14 01:09:42;;;;;;;6.90;1.50;;;-0.70;99.90;;;;;;5071380;28;20630;-47
2021/04/14 01:12:09;;;;;;;4.85;1.63;;;-0.80;99.90;;;;;;5071525;28;20670;-47
2021/04/14 01:14:35;;;;;;;4.10;1.00;;;-0.80;99.90;;;;;;5074119;28;20178;-48
2021/04/14 01:17:02;;;;;;;2.22;1.00;;;-0.80;99.90;;;;;;5073537;28;20658;-48
2021/04/14 01:19:29;;;;;;;3.88;0.98;;;-0.80;99.90;;;;;;5069212;28;20177;-47
2021/04/14 01:21:55;;;;;;;3.88;1.60;;;-0.90;99.90;;;;;;5073409;28;20225;-48
2021/04/14 01:24:21;;;;;;;7.93;1.50;;;-0.90;99.90;;;;;;5073533;28;20182;-46
2021/04/14 01:26:48;;;;;;;3.80;1.00;;;-0.90;99.90;;;;;;5068968;28;20631;-47
2021/04/14 01:29:15;;;;;;;4.93;1.27;;;-0.90;99.90;;;;;;5069422;28;20190;-46
2021/04/14 01:31:41;;;;;;;5.93;1.13;;;-0.90;99.90;;;;;;5074151;28;20213;-47
2021/04/14 01:34:12;;;;;;;3.50;1.40;;;-0.90;99.90;;;;;;5070767;28;20170;-47
2021/04/14 01:36:39;;;;;;;6.22;1.42;;;-1.00;99.90;;;;;;5072471;28;20514;-46
2021/04/14 01:39:06;;;;;;;5.38;2.00;;;-1.00;99.90;;;;;;5070124;28;20174;-46
2021/04/14 01:41:32;;;;;;;7.70;1.67;;;-1.10;99.90;;;;;;5072050;28;20205;-47
2021/04/14 01:43:59;;;;;;;2.08;1.20;;;-1.20;99.90;;;;;;5073589;28;20551;-48
2021/04/14 01:46:25;;;;;;;7.55;1.88;;;-1.20;99.90;;;;;;5072553;28;20190;-48
2021/04/14 01:48:51;;;;;;;6.40;2.50;;;-1.30;99.90;;;;;;5071918;28;20630;-47
2021/04/14 01:51:18;;;;;;;5.18;2.10;;;-1.30;99.90;;;;;;5071922;28;20189;-47
2021/04/14 01:53:44;;;;;;;10.43;2.67;;;-1.20;99.90;;;;;;5073815;28;20198;-48
2021/04/14 01:56:10;;;;;;;8.20;2.60;;;-1.10;99.90;;;;;;5073305;28;20174;-47
2021/04/14 01:58:36;;;;;;;7.97;2.00;;;-1.10;99.90;;;;;;5071468;28;20508;-47
2021/04/14 02:01:06;;;;;;;6.90;2.38;;;-1.00;99.90;;;;;;5086016;28;20638;-47
2021/04/14 02:03:35;;;;;;;13.20;2.42;;;-1.00;99.90;;;;;;5073217;28;20166;-49
2021/04/14 02:06:01;;;;;;;7.53;2.20;;;-1.00;99.90;;;;;;5069773;28;20171;-47
2021/04/14 02:08:28;;;;;;;5.97;1.98;;;-1.10;99.90;;;;;;5066393;28;20181;-47
2021/04/14 02:10:54;;;;;;;4.90;1.73;;;-1.20;99.90;;;;;;5073155;28;20186;-45
2021/04/14 02:13:25;;;;;;;6.50;2.28;;;-1.20;99.90;;;;;;5069574;28;20201;-47
2021/04/14 02:15:51;;;;;;;4.38;2.10;;;-1.30;99.90;;;;;;5072141;28;20192;-47
2021/04/14 02:18:18;;;;;;;6.30;2.35;;;-1.30;99.90;;;;;;5073453;28;20229;-48
2021/04/14 02:20:44;;;;;;;6.85;2.05;;;-1.40;99.90;;;;;;5069921;28;20190;-47
2021/04/14 02:23:32;;;;;;;4.38;1.70;;;-1.40;99.90;;;;;;5070806;28;20214;-46
2021/04/14 02:25:59;;;;;;;8.32;2.25;;;-1.40;99.90;;;;;;5071488;28;20534;-47
2021/04/14 02:28:25;;;;;;;3.35;1.90;;;-1.40;99.90;;;;;;5070167;28;20623;-48
2021/04/14 02:30:52;;;;;;;4.38;2.00;;;-1.40;99.90;;;;;;5069133;28;20174;-47
2021/04/14 02:33:18;;;;;;;11.88;2.67;;;-1.30;99.90;;;;;;5071323;28;20225;-47
2021/04/14 02:35:44;;;;;;;5.78;1.92;;;-1.30;99.90;;;;;;5069690;28;20567;-49
2021/04/14 02:38:10;;;;;;;8.77;2.28;;;-1.20;99.90;;;;;;5069529;28;20204;-49
2021/04/14 02:40:37;;;;;;;6.20;2.05;;;-1.30;99.90;;;;;;5071865;28;20521;-48
2021/04/14 02:43:03;;;;;;;4.68;1.90;;;-1.40;99.90;;;;;;5070278;28;20202;-48
2021/04/14 02:45:30;;;;;;;9.68;2.25;;;-1.50;99.90;;;;;;5070483;28;20177;-48
2021/04/14 02:47:57;;;;;;;12.52;2.15;;;-1.50;99.90;;;;;;5072053;28;20181;-48
2021/04/14 02:50:23;;;;;;;4.20;1.90;;;-1.60;99.90;;;;;;5069158;28;20193;-47
2021/04/14 02:52:49;;;;;;;12.05;2.22;;;-1.60;99.90;;;;;;5069921;28;20665;-47
2021/04/14 02:55:16;;;;;;;7.50;2.25;;;-1.50;99.90;;;;;;5069611;28;20202;-48
2021/04/14 02:57:42;;;;;;;14.02;2.03;;;-1.50;99.90;;;;;;5066285;28;20185;-48
2021/04/14 03:00:09;;;;;;;4.25;2.05;;;-1.50;99.90;;;;;;5069652;28;20627;-48
2021/04/14 03:02:35;;;;;;;8.82;2.47;;;-1.50;99.90;;;;;;5069734;28;20209;-48
2021/04/14 03:05:05;;;;;;;5.07;2.17;;;-1.40;99.90;;;;;;5064894;28;20174;-48
2021/04/14 03:07:32;;;;;;;5.00;2.05;;;-1.50;99.90;;;;;;5069356;28;20553;-48
2021/04/14 03:09:58;;;;;;;5.18;1.80;;;-1.50;99.90;;;;;;5071415;28;20196;-47
2021/04/14 03:12:24;;;;;;;8.38;2.15;;;-1.60;99.90;;;;;;5070796;28;20184;-48
2021/04/14 03:14:50;;;;;;;4.82;2.20;;;-1.70;99.90;;;;;;5070353;28;20171;-48
2021/04/14 03:17:16;;;;;;;5.07;2.08;;;-1.70;99.90;;;;;;5071201;28;20208;-46
2021/04/14 03:19:42;;;;;;;8.88;2.60;;;-1.70;99.90;;;;;;5064643;28;20538;-47
2021/04/14 03:22:09;;;;;;;11.88;2.42;;;-1.60;99.90;;;;;;5063320;28;20216;-47
2021/04/14 03:24:35;;;;;;;7.70;2.65;;;-1.50;99.90;;;;;;5068070;28;20181;-48
2021/04/14 03:27:01;;;;;;;5.63;2.30;;;-1.50;99.90;;;;;;5063158;28;20181;-49
2021/04/14 03:29:27;;;;;;;7.10;2.03;;;-1.40;99.90;;;;;;5066913;28;20173;-46
2021/04/14 03:31:53;;;;;;;5.40;1.80;;;-1.50;99.90;;;;;;5072395;28;20216;-49
2021/04/14 03:34:19;;;;;;;3.03;1.80;;;-1.50;99.90;;;;;;5068867;28;20525;-47
2021/04/14 03:36:45;;;;;;;6.25;1.90;;;-1.50;99.90;;;;;;5070585;28;20547;-48
2021/04/14 03:39:12;;;;;;;9.55;2.30;;;-1.60;99.90;;;;;;5065635;28;20626;-46
2021/04/14 03:41:38;;;;;;;8.05;1.98;;;-1.70;99.90;;;;;;5066152;28;20225;-47
2021/04/14 03:44:04;;;;;;;4.72;2.00;;;-1.70;99.90;;;;;;5071297;28;20178;-46
2021/04/14 03:46:30;;;;;;;6.95;2.13;;;-1.80;99.90;;;;;;5071821;28;20178;-47
2021/04/14 03:48:56;;;;;;;5.90;2.42;;;-1.80;99.90;;;;;;5072059;28;20166;-45
2021/04/14 03:51:25;;;;;;;6.82;2.20;;;-1.80;99.90;;;;;;5069818;28;20194;-46
2021/04/14 03:53:52;;;;;;;8.15;2.75;;;-1.80;99.90;;;;;;5071294;28;20210;-47
2021/04/14 03:56:18;;;;;;;10.57;2.67;;;-1.80;99.90;;;;;;5068350;28;20646;-48
2021/04/14 03:58:47;;;;;;;7.47;2.42;;;-1.80;99.90;;;;;;5067532;28;20182;-47
2021/04/14 04:01:17;;;;;;;9.18;2.83;;;-1.70;99.90;;;;;;5069866;28;20549;-49
2021/04/14 04:03:43;;;;;;;3.85;2.10;;;-1.70;99.90;;;;;;5069261;28;20532;-48
2021/04/14 04:06:09;;;;;;;6.43;2.42;;;-1.80;99.90;;;;;;5070821;28;20173;-47
2021/04/14 04:08:35;;;;;;;11.77;2.67;;;-1.80;99.90;;;;;;5068144;28;20178;-47
2021/04/14 04:11:02;;;;;;;5.18;2.40;;;-1.80;99.90;;;;;;5071595;28;20181;-47
2021/04/14 04:13:29;;;;;;;14.63;2.60;;;-1.70;99.90;;;;;;5070149;28;20181;-47
2021/04/14 04:15:55;;;;;;;9.15;2.40;;;-1.60;99.90;;;;;;5070382;28;20170;-46
2021/04/14 04:18:21;;;;;;;3.75;2.22;;;-1.60;99.90;;;;;;5070948;28;20170;-47
2021/04/14 04:20:47;;;;;;;6.40;2.47;;;-1.60;99.90;;;;;;5072034;28;20185;-48
2021/04/14 04:23:13;;;;;;;6.40;2.13;;;-1.60;99.90;;;;;;5066890;28;20550;-48
2021/04/14 04:25:39;;;;;;;7.20;2.67;;;-1.70;99.90;;;;;;5066323;28;20639;-47
2021/04/14 04:28:06;;;;;;;9.57;2.92;;;-1.80;99.90;;;;;;5068053;28;20185;-47
2021/04/14 04:30:32;;;;;;;8.07;2.47;;;-1.80;99.90;;;;;;5070041;28;20181;-49
2021/04/14 04:32:58;;;;;;;5.22;2.45;;;-1.80;99.90;;;;;;5063941;28;20217;-48
2021/04/14 04:35:25;;;;;;;6.55;2.30;;;-1.80;99.90;;;;;;5072515;28;20642;-46
2021/04/14 04:37:51;;;;;;;6.80;2.60;;;-1.80;99.90;;;;;;5071880;28;20665;-46
2021/04/14 04:40:18;;;;;;;9.95;2.63;;;-1.70;99.90;;;;;;5069546;28;20560;-53
2021/04/14 04:42:44;;;;;;;12.48;2.97;;;-1.70;99.90;;;;;;5070046;28;20224;-48
2021/04/14 04:45:10;;;;;;;13.35;2.90;;;-1.60;99.90;;;;;;5068859;28;20186;-47
2021/04/14 04:47:37;;;;;;;14.70;2.92;;;-1.50;99.90;;;;;;5083305;28;20184;-46
2021/04/14 04:50:06;;;;;;;10.43;2.95;;;-1.50;99.90;;;;;;5090912;28;20622;-45
2021/04/14 04:52:33;;;;;;;8.43;2.80;;;-1.40;99.90;;;;;;5075425;28;20205;-48
2021/04/14 04:54:59;;;;;;;12.57;2.85;;;-1.40;99.90;;;;;;5072042;28;20567;-48
2021/04/14 04:57:25;;;;;;;15.38;3.17;;;-1.30;99.90;;;;;;5071632;28;20554;-47
2021/04/14 04:59:52;;;;;;;25.00;2.95;;;-1.20;99.90;;;;;;5072220;28;20177;-47
2021/04/14 05:02:18;;;;;;;11.27;2.90;;;-1.10;99.90;;;;;;5071737;28;20553;-46
2021/04/14 05:04:44;;;;;;;9.55;2.50;;;-1.00;99.90;;;;;;5041443;28;20191;-46
2021/04/14 05:07:10;;;;;;;20.65;3.97;;;-0.80;99.90;;;;;;5067597;28;20178;-48
2021/04/14 05:09:36;;;;;;;8.80;2.55;;;-0.70;99.90;;;;;;5055385;28;20177;-48
2021/04/14 05:12:03;;;;;;;12.88;3.20;;;-0.70;99.90;;;;;;5061164;28;20185;-48
2021/04/14 05:14:29;;;;;;;58.78;4.03;;;-0.60;99.90;;;;;;5060230;28;20183;-45
2021/04/14 05:16:55;;;;;;;22.40;3.47;;;-0.60;99.90;;;;;;5057328;28;20187;-49
2021/04/14 05:19:21;;;;;;;16.08;3.67;;;-0.50;99.90;;;;;;5056742;28;20186;-45
2021/04/14 05:21:47;;;;;;;9.05;4.22;;;-0.40;99.90;;;;;;5072521;28;20211;-48
2021/04/14 05:24:13;;;;;;;16.75;4.65;;;-0.30;99.90;;;;;;5057941;28;20190;-46
2021/04/14 05:26:40;;;;;;;11.70;4.65;;;-0.20;99.90;;;;;;5057211;28;20577;-46
2021/04/14 05:29:06;;;;;;;15.27;4.53;;;-0.10;99.90;;;;;;5055686;28;20178;-48
2021/04/14 05:31:32;;;;;;;9.68;3.80;;;0.00;99.90;;;;;;5062064;28;20650;-46
2021/04/14 05:33:59;;;;;;;12.15;2.85;;;0.20;99.90;;;;;;5062703;28;20178;-48
2021/04/14 05:36:25;;;;;;;11.88;2.75;;;0.30;99.90;;;;;;5053353;28;20627;-47
2021/04/14 05:38:51;;;;;;;21.52;2.70;;;0.30;99.90;;;;;;5054417;28;20205;-47
2021/04/14 05:41:18;;;;;;;14.18;3.08;;;0.40;99.90;;;;;;5054387;28;20530;-47
2021/04/14 05:43:44;;;;;;;9.65;2.47;;;0.50;99.90;;;;;;5065267;28;20678;-47
2021/04/14 05:46:13;;;;;;;13.52;2.55;;;0.60;99.90;;;;;;5061823;28;20175;-47
2021/04/14 05:48:40;;;;;;;9.30;2.95;;;0.70;99.90;;;;;;5069907;28;20178;-48
2021/04/14 05:51:06;;;;;;;28.23;2.45;;;0.80;99.90;;;;;;5071890;28;20634;-47
2021/04/14 05:53:36;;;;;;;5.75;2.53;;;0.90;99.90;;;;;;5060110;28;20198;-47
2021/04/14 05:56:03;;;;;;;15.93;3.25;;;1.00;99.90;;;;;;5063773;28;20186;-47
2021/04/14 05:58:29;;;;;;;10.55;1.83;;;1.10;99.90;;;;;;5077038;28;20545;-47
2021/04/14 06:00:55;;;;;;;4.47;2.05;;;1.20;99.90;;;;;;5070583;28;20174;-46
2021/04/14 06:03:22;;;;;;;15.05;1.90;;;1.30;99.90;;;;;;5069591;28;20218;-48
2021/04/14 06:05:52;;;;;;;7.97;1.98;;;1.40;99.90;;;;;;5061365;28;20178;-47
2021/04/14 06:08:18;;;;;;;4.15;1.88;;;1.50;99.90;;;;;;5062977;28;20186;-47
2021/04/14 06:10:44;;;;;;;5.90;1.85;;;1.60;99.90;;;;;;5067928;28;20186;-47
2021/04/14 06:13:11;;;;;;;12.88;2.05;;;1.70;99.90;;;;;;5068332;28;20189;-49
2021/04/14 06:15:37;;;;;;;19.25;2.25;;;1.80;99.90;;;;;;5057537;28;20178;-47
2021/04/14 06:18:03;;;;;;;11.02;1.42;;;1.90;99.90;;;;;;5067776;28;20182;-47
2021/04/14 06:20:30;;;;;;;9.75;2.38;;;2.00;99.90;;;;;;5057036;28;20190;-48
2021/04/14 06:22:59;;;;;;;4.93;1.63;;;2.10;99.90;;;;;;5073100;28;20200;-49
2021/04/14 06:25:25;;;;;;;6.15;1.45;;;2.20;99.90;;;;;;5073549;28;20174;-46
2021/04/14 06:30:21;;;;;;;20.27;2.28;;;2.50;99.90;;;;;;5069199;28;20172;-47
2021/04/14 06:32:47;;;;;;;13.40;2.10;;;2.60;99.90;;;;;;5054008;28;20214;-45
2021/04/14 06:35:15;;;;;;;12.35;2.00;;;2.80;99.90;;;;;;5054813;28;20253;-46
2021/04/14 06:37:42;;;;;;;10.95;1.85;;;2.90;99.90;;;;;;5055904;28;20642;-48
2021/04/14 06:43:02;;;;;;;12.73;2.00;;;3.20;99.90;;;;;;5069100;28;20205;-48
2021/04/14 06:45:33;;;;;;;8.57;1.73;;;3.30;99.90;;;;;;5074327;28;20171;-46
2021/04/14 06:48:10;;;;;;;17.17;2.53;;;3.50;99.90;;;;;;5073302;28;20178;-46
2021/04/14 06:50:41;;;;;;;3.55;1.27;;;3.60;99.90;;;;;;5056836;28;20185;-46
2021/04/14 06:53:27;;;;;;;10.52;1.70;;;3.70;99.90;;;;;;5062046;28;20185;-47
2021/04/14 06:56:02;;;;;;;5.82;1.45;;;3.80;99.90;;;;;;5069070;28;20171;-48
2021/04/14 06:58:43;;;;;;;13.27;1.52;;;3.90;99.90;;;;;;5057385;28;20670;-46
2021/04/14 07:01:34;;;;;;;14.45;2.25;;;4.00;99.90;;;;;;5070681;28;20193;-51
2021/04/14 07:04:09;;;;;;;10.57;1.65;;;4.20;99.90;;;;;;5054297;28;20296;-48
2021/04/14 07:06:37;;;;;;;12.05;1.52;;;4.30;99.90;;;;;;5059758;28;20530;-47
2021/04/14 07:09:21;;;;;;;7.55;1.48;;;4.50;99.90;;;;;;5074809;28;20174;-45
2021/04/14 07:11:48;;;;;;;4.53;1.10;;;4.60;99.90;;;;;;5075272;28;20193;-47
2021/04/14 07:14:15;;;;;;;11.05;1.67;;;4.70;99.90;;;;;;5077269;28;20185;-46
2021/04/14 07:17:00;;;;;;;84.30;4.22;;;4.80;99.90;;;;;;5072805;28;20171;-48
2021/04/14 07:19:49;;;;;;;6.78;1.10;;;5.10;99.90;;;;;;5061711;28;20173;-48
2021/04/14 07:22:20;;;;;;;5.28;1.33;;;5.30;99.90;;;;;;5076566;28;20202;-47
2021/04/14 07:24:58;;;;;;;10.38;1.23;;;5.40;99.90;;;;;;5058506;28;20174;-48
2021/04/14 07:27:39;;;;;;;11.77;1.90;;;5.50;99.90;;;;;;5057002;28;20158;-47
2021/04/14 07:30:18;;;;;;;18.85;1.30;;;5.70;99.90;;;;;;5083098;28;20183;-46
2021/04/14 07:33:30;;;;;;;11.13;1.92;;;6.00;99.90;;;;;;5069005;28;20678;-47
2021/04/14 07:36:19;;;;;;;10.98;1.55;;;6.40;99.90;;;;;;5070850;28;20182;-44
2021/04/14 07:38:59;;;;;;;6.22;0.80;;;6.60;99.90;;;;;;5074402;28;20201;-46
2021/04/14 07:41:41;;;;;;;8.18;0.60;;;6.80;99.90;;;;;;5071319;28;20756;-44
2021/04/14 07:44:24;;;;;;;1.27;0.60;;;6.70;99.90;;;;;;5068452;28;20222;-47
2021/04/14 07:46:50;;;;;;;3.38;0.38;;;6.70;99.90;;;;;;5068256;28;20169;-44
2021/04/14 07:49:17;;;;;;;4.70;0.52;;;6.80;99.90;;;;;;5058166;28;20190;-46
2021/04/14 07:51:44;;;;;;;4.10;0.52;;;7.00;99.90;;;;;;5068602;28;20182;-42
2021/04/14 07:54:15;;;;;;;3.63;0.60;;;7.20;99.90;;;;;;5052383;28;20207;-43
2021/04/14 07:56:52;;;;;;;2.90;0.45;;;7.40;99.90;;;;;;5063828;28;20528;-43
2021/04/14 07:59:32;;;;;;;1.70;0.35;;;7.50;99.90;;;;;;5060849;28;20174;-46
2021/04/14 08:02:02;;;;;;;4.47;0.32;;;7.30;99.90;;;;;;5069691;28;20527;-46
2021/04/14 08:04:30;;;;;;;5.88;0.40;;;7.40;99.90;;;;;;5057839;28;20196;-45
2021/04/14 08:07:16;;;;;;;1.80;0.30;;;7.80;99.90;;;;;;5057065;28;20174;-46
2021/04/14 08:10:00;;;;;;;1.75;0.50;;;8.20;99.90;;;;;;5063369;28;20501;-46
2021/04/14 08:12:30;;;;;;;2.38;0.50;;;8.90;99.90;;;;;;5061177;28;20641;-45
2021/04/14 08:15:09;;;;;;;;;;;9.50;99.90;;;;;;5068763;28;20040;-45
2021/04/14 08:17:35;;;;;;;;;;;9.90;99.90;;;;;;5056615;28;19909;-42
2021/04/14 08:20:02;;;;;;;;;;;11.00;99.90;;;;;;5061900;28;19905;-44
2021/04/14 08:22:29;;;;;;;;;;;11.40;99.90;;;;;;5071859;28;19920;-46
2021/04/14 08:24:56;;;;;;;;;;;11.90;97.90;;;;;;5071986;28;20265;-45
2021/04/14 08:27:28;;;;;;;;;;;11.90;95.20;;;;;;5071372;28;19909;-48
2021/04/14 08:30:13;;;;;;;;;;;12.30;98.50;;;;;;5070452;28;20300;-48
2021/04/14 08:32:40;;;;;;;;;;;11.60;94.50;;;;;;5071797;28;19932;-45
2021/04/14 08:35:07;;;;;;;;;;;12.10;95.70;;;;;;5061845;28;19923;-44
2021/04/14 08:37:33;;;;;;;;;;;12.10;90.80;;;;;;5069415;28;19913;-46
2021/04/14 08:39:59;;;;;;;;;;;11.60;87.20;;;;;;5065079;28;20030;-46
2021/04/14 08:42:31;;;;;;;;;;;12.70;91.00;;;;;;5061030;28;19912;-47
2021/04/14 08:45:03;;;;;;;;;;;12.70;90.20;;;;;;5058467;28;19908;-47
2021/04/14 08:47:30;;;;;;;;;;;12.90;89.60;;;;;;5059490;28;19916;-46
2021/04/14 08:50:02;;;;;;;;;;;13.00;84.30;;;;;;5057390;28;19920;-48
2021/04/14 08:52:28;;;;;;;;;;;12.30;80.50;;;;;;5064910;28;19908;-45
2021/04/14 08:54:54;;;;;;;;;;;10.80;77.70;;;;;;5069587;28;19908;-47
2021/04/14 08:57:21;;;;;;;;;;;10.70;81.60;;;;;;5056816;28;19916;-46
2021/04/14 08:59:47;;;;;;;;;;;11.60;81.20;;;;;;5051778;28;19913;-46
2021/04/14 09:02:15;;;;;;;;;;;12.60;79.90;;;;;;5070436;28;20261;-46
2021/04/14 09:04:41;;;;;;;;;;;13.40;78.50;;;;;;5055244;28;19909;-47
2021/04/14 09:07:07;;;;;;;;;;;14.50;75.10;;;;;;5054309;28;20288;-48
2021/04/14 09:09:42;;;;;;;;;;;14.50;69.10;;;;;;5069669;28;19909;-46
2021/04/14 09:12:08;;;;;;;;;;;14.80;72.30;;;;;;5063136;28;19915;-47
2021/04/14 09:14:34;;;;;;;;;;;15.50;70.90;;;;;;5070955;28;19920;-46
2021/04/14 09:17:02;;;;;;;;;;;14.70;64.80;;;;;;5068449;28;19920;-46
2021/04/14 09:19:35;;;;;;;;;;;14.60;72.30;;;;;;5060285;28;19908;-48
2021/04/14 09:22:01;;;;;;;;;;;16.20;73.40;;;;;;5064701;28;19916;-47
2021/04/14 09:24:29;;;;;;;;;;;15.50;68.20;;;;;;5055306;28;19916;-46
2021/04/14 09:26:56;;;;;;;;;;;16.80;65.40;;;;;;5053823;28;19912;-47
2021/04/14 09:29:28;;;;;;;;;;;16.10;64.40;;;;;;5058794;28;19912;-52
2021/04/14 09:31:55;;;;;;;;;;;16.80;61.10;;;;;;5067487;28;19917;-46
2021/04/14 09:34:36;;;;;;;;;;;18.30;63.20;;;;;;5056484;28;20889;-48
2021/04/14 09:37:08;;;;;;;;;;;18.40;60.60;;;;;;5074220;28;19908;-49
2021/04/14 09:39:37;;;;;;;;;;;19.20;58.40;;;;;;5070333;28;19909;-47
2021/04/14 09:42:23;;;;;;;;;;;19.00;57.50;;;;;;5065018;28;19912;-47
2021/04/14 09:44:59;;;;;;;;;;;18.80;53.30;;;;;;5065933;28;19932;-45
2021/04/14 09:47:25;;;;;;;0.45;0.20;;;17.60;53.60;;;;;;5069877;28;20169;-45
2021/04/14 09:49:51;;;;;;;;;;;16.00;52.80;;;;;;5074344;28;20391;-44
2021/04/14 09:52:27;;;;;;;;;;;14.60;51.70;;;;;;5074903;28;19908;-44
2021/04/14 09:55:13;;;;;;;;;;;12.80;54.40;;;;;;5074006;28;19909;-44
2021/04/14 09:57:40;;;;;;;;;;;11.40;55.50;;;;;;5069564;28;20387;-46
2021/04/14 10:00:13;;;;;;;;;;;11.30;60.10;;;;;;5071857;28;19912;-46
2021/04/14 10:02:39;;;;;;;;;;;12.70;63.60;;;;;;5073629;28;19908;-47
2021/04/14 10:05:05;;;;;;;;;;;13.20;59.40;;;;;;5073266;28;19914;-49
2021/04/14 10:07:32;;;;;;;;;;;14.30;60.40;;;;;;5073396;28;19912;-47
2021/04/14 10:10:07;;;;;;;;;;;15.50;58.50;;;;;;5072194;28;19908;-50
2021/04/14 10:12:33;;;;;;;;;;;14.90;56.00;;;;;;5072556;28;19908;-50
2021/04/14 10:14:59;;;;;;;;;;;13.60;54.10;;;;;;5073726;28;20365;-49
2021/04/14 10:17:26;;;;;;;;;;;13.60;57.30;;;;;;5072968;28;20353;-46
2021/04/14 10:19:55;;;;;;;;;;;12.40;56.70;;;;;;5073973;28;19916;-45
2021/04/14 10:22:25;;;;;;;;;;;12.30;59.30;;;;;;5073015;28;20264;-45
2021/04/14 10:25:01;;;;;;;;;;;12.20;59.80;;;;;;5072753;28;19924;-46
2021/04/14 10:27:27;;;;;;;;;;;10.80;59.70;;;;;;5073413;28;19915;-46
2021/04/14 10:29:53;;;;;;;;;;;10.00;65.70;;;;;;5074378;28;19908;-45
2021/04/14 10:32:23;;;;;;;;;;;9.40;70.80;;;;;;5072142;28;19989;-45
2021/04/14 10:34:49;;;;;;;;;;;8.90;73.40;;;;;;5056340;28;19908;-45
2021/04/14 10:37:19;;;;;;;;;;;8.70;75.40;;;;;;5073906;28;19939;-46
2021/04/14 10:39:45;;;;;;;;;;;9.00;77.70;;;;;;5072812;28;20284;-44
2021/04/14 10:42:11;;;;;;;;;;;8.90;79.10;;;;;;5073334;28;19920;-45
2021/04/14 10:44:37;;;;;;;;;;;8.70;81.90;;;;;;5072726;28;19924;-45
2021/04/14 10:47:05;;;;;;;;;;;8.50;78.40;;;;;;5060623;28;19920;-46
2021/04/14 10:49:32;;;;;;;;;;;8.10;79.60;;;;;;5064128;28;20268;-45
2021/04/14 10:52:09;;;;;;;;;;;8.10;85.60;;;;;;5072085;28;19909;-45
2021/04/14 10:54:35;;;;;;;;;;;7.80;88.60;;;;;;5056017;28;19912;-47
2021/04/14 10:57:04;;;;;;;;;;;7.60;89.70;;;;;;5065621;28;19966;-44
2021/04/14 10:59:30;;;;;;;;;;;7.60;91.40;;;;;;5062370;28;19912;-45
2021/04/14 11:01:56;;;;;;;;;;;7.80;92.70;;;;;;5058148;28;19916;-46
2021/04/14 11:04:28;;;;;;;;;;;8.00;93.00;;;;;;5056819;28;20007;-46
2021/04/14 11:07:01;;;;;;;;;;;8.00;91.10;;;;;;5069524;28;19909;-45
2021/04/14 11:09:27;;;;;;;;;;;8.30;90.10;;;;;;5060299;28;19908;-47
2021/04/14 11:11:53;;;;;;;;;;;8.60;89.80;;;;;;5052788;28;19905;-47
2021/04/14 11:14:19;;;;;;;;;;;8.80;88.40;;;;;;5053651;28;19931;-46
2021/04/14 11:16:46;;;;;;;;;;;9.50;86.50;;;;;;5058213;28;19912;-45
2021/04/14 11:19:12;;;;;;;;;;;9.50;85.90;;;;;;5056167;28;20329;-45
2021/04/14 11:21:38;;;;;;;;;;;9.50;85.00;;;;;;5054185;28;19921;-47
2021/04/14 11:24:09;;;;;;;;;;;9.40;82.10;;;;;;5060602;28;19927;-44
2021/04/14 11:26:35;;;;;;;;;;;9.80;82.60;;;;;;5058373;28;19908;-47
2021/04/14 11:29:02;;;;;;;;;;;9.90;81.40;;;;;;5052510;28;19919;-44
2021/04/14 11:31:32;;;;;;;;;;;9.70;76.70;;;;;;5053263;28;19916;-44
2021/04/14 11:33:58;;;;;;;;;;;9.50;75.10;;;;;;5057989;28;19928;-44
2021/04/14 11:36:24;;;;;;;;;;;9.60;74.90;;;;;;5059679;28;20280;-45
2021/04/14 11:38:59;;;;;;;;;;;9.80;76.30;;;;;;5059531;28;19909;-45
2021/04/14 11:41:26;;;;;;;;;;;10.00;76.60;;;;;;5059399;28;20296;-47
2021/04/14 11:43:52;;;;;;;;;;;10.20;78.20;;;;;;5060217;28;19916;-48
2021/04/14 11:46:27;;;;;;;;;;;9.70;73.20;;;;;;5064492;28;19944;-44
2021/04/14 11:48:54;;;;;;;;;;;9.90;75.40;;;;;;5053683;28;19920;-45
2021/04/14 11:51:33;;;;;;;;;;;10.00;73.20;;;;;;5070013;28;19913;-47
2021/04/14 11:54:01;;;;;;;;;;;9.60;72.40;;;;;;5070723;28;19908;-45
2021/04/14 11:56:32;;;;;;;;;;;9.30;70.30;;;;;;5059678;28;19947;-47
2021/04/14 11:58:58;;;;;;;;;;;9.30;69.70;;;;;;5053221;28;19912;-47
2021/04/14 12:01:25;;;;;;;;;;;9.60;73.90;;;;;;5061955;28;19908;-50
2021/04/14 12:03:51;;;;;;;;;;;9.70;75.30;;;;;;5063654;28;19912;-49
2021/04/14 12:06:17;;;;;;;;;;;9.40;73.50;;;;;;5062315;28;19919;-49
2021/04/14 12:08:43;;;;;;;;;;;9.50;74.80;;;;;;5070809;28;19913;-48
2021/04/14 12:11:14;;;;;;;;;;;10.20;78.40;;;;;;5072752;28;19916;-49
2021/04/14 12:13:40;;;;;;;;;;;11.00;74.50;;;;;;5064935;28;19912;-48
2021/04/14 12:16:06;;;;;;;;;;;11.20;73.00;;;;;;5060631;28;20319;-49
2021/04/14 12:18:32;;;;;;;;;;;11.40;74.40;;;;;;5055897;28;20277;-48
2021/04/14 12:20:58;;;;;;;;;;;10.80;66.30;;;;;;5068218;28;20389;-49
2021/04/14 12:23:23;;;;;;;;;;;10.80;69.50;;;;;;5072592;28;20357;-51
2021/04/14 12:25:49;;;;;;;;;;;11.20;68.70;;;;;;5072166;28;19912;-50
2021/04/14 12:28:15;;;;;;;;;;;10.70;68.80;;;;;;5071487;28;19912;-53
2021/04/14 12:30:41;;;;;;;;;;;10.10;68.10;;;;;;5066877;28;19913;-49
2021/04/14 12:33:07;;;;;;;;;;;10.70;69.00;;;;;;5066113;28;19924;-50
2021/04/14 12:35:34;;;;;;;;;;;10.70;66.20;;;;;;5069900;28;19912;-50
2021/04/14 12:38:03;;;;;;;;;;;10.00;65.00;;;;;;5071705;28;19912;-49
2021/04/14 12:40:29;;;;;;;;;;;9.80;67.70;;;;;;5070501;28;19919;-50
2021/04/14 12:42:55;;;;;;;;;;;9.80;68.50;;;;;;5070562;28;19948;-50
2021/04/14 12:45:27;;;;;;;;;;;9.50;65.60;;;;;;5066576;28;19923;-50
2021/04/14 12:47:53;;;;;;;;;;;9.10;66.70;;;;;;5072035;28;19916;-51
2021/04/14 12:50:19;;;;;;;;;;;9.30;71.30;;;;;;5071767;28;19904;-50
2021/04/14 12:52:45;;;;;;;;;;;9.50;70.70;;;;;;5065410;28;20295;-49
2021/04/14 12:55:22;;;;;;;;;;;9.60;70.10;;;;;;5063733;28;19931;-50
2021/04/14 12:57:48;;;;;;;;;;;9.40;69.80;;;;;;5066444;28;19912;-49
2021/04/14 13:00:15;;;;;;;;;;;9.40;69.50;;;;;;5071295;28;19954;-49
2021/04/14 13:02:42;;;;;;;;;;;9.30;68.50;;;;;;5069062;28;19908;-49
2021/04/14 13:05:27;;;;;;;;;;;9.00;67.60;;;;;;5071182;28;19921;-50
2021/04/14 13:08:11;;;;;;;;;;;8.60;68.80;;;;;;5063364;28;19916;-50
2021/04/14 13:10:56;;;;;;;;;;;8.60;69.50;;;;;;5058396;28;19979;-49
2021/04/14 13:13:21;;;;;;;;;;;8.50;70.40;;;;;;5075341;28;19915;-50
2021/04/14 13:15:49;;;;;;;;;;;8.60;76.10;;;;;;5074833;28;19912;-49
2021/04/14 13:18:15;;;;;;;;;;;8.90;74.10;;;;;;5068128;28;19909;-51
2021/04/14 13:20:41;;;;;;;;;;;10.20;75.20;;;;;;5062414;28;20315;-50
2021/04/14 13:23:07;;;;;;;;;;;10.90;70.40;;;;;;5053972;28;19908;-49
2021/04/14 13:25:40;;;;;;;;;;;11.00;66.70;;;;;;5064870;28;19909;-49
2021/04/14 13:28:30;;;;;;;;;;;10.90;65.80;;;;;;5072895;28;19912;-50
2021/04/14 13:30:59;;;;;;;;;;;9.50;64.80;;;;;;5068678;28;19967;-48
2021/04/14 13:33:29;;;;;;;;;;;9.60;65.00;;;;;;5074590;28;19916;-48
2021/04/14 13:35:58;;;;;;;;;;;9.50;67.90;;;;;;5075569;28;19904;-49